Time;durP1;ratioP1;P1;durP2;ratioP2;P2;SDS_P1;SDS_P2;PMS_P1;PMS_P2;Temp;Humidity;BMP_temperature;BMP_pressure;BME280_temperature;BME280_humidity;BME280_pressure;Samples;Min_cycle;Max_cycle;Signal;HPM_P1;HPM_P2
2022/07/04 00:01:53;;;;;;;3.35;1.90;;;17.00;99.90;;;;;;5004830;28;20586;-65
2022/07/04 00:04:21;;;;;;;1.42;1.33;;;17.00;99.90;;;;;;5008326;28;20232;-65
2022/07/04 00:06:48;;;;;;;1.45;1.35;;;17.10;99.90;;;;;;5010982;28;20259;-65
2022/07/04 00:09:15;;;;;;;1.42;1.30;;;16.90;99.90;;;;;;5009779;28;20739;-66
2022/07/04 00:11:42;;;;;;;3.03;1.33;;;16.80;99.90;;;;;;5008927;28;20208;-65
2022/07/04 00:14:09;;;;;;;3.58;1.63;;;16.70;99.90;;;;;;5010228;28;20251;-65
2022/07/04 00:16:36;;;;;;;1.27;1.13;;;16.90;99.90;;;;;;5009792;28;20676;-65
2022/07/04 00:19:03;;;;;;;2.60;1.35;;;16.60;99.90;;;;;;5004392;28;20228;-66
2022/07/04 00:21:31;;;;;;;1.63;1.30;;;16.50;99.90;;;;;;5008265;28;20239;-66
2022/07/04 00:23:58;;;;;;;1.50;1.40;;;16.50;99.90;;;;;;5010972;28;20279;-65
2022/07/04 00:26:25;;;;;;;2.00;1.40;;;16.50;99.90;;;;;;5009313;28;20215;-66
2022/07/04 00:28:52;;;;;;;1.60;1.50;;;16.60;99.90;;;;;;5007700;28;20506;-65
2022/07/04 00:31:19;;;;;;;1.65;1.52;;;16.50;99.90;;;;;;5007512;28;20271;-65
2022/07/04 00:33:46;;;;;;;3.03;1.42;;;16.40;99.90;;;;;;5007522;28;20248;-66
2022/07/04 00:36:13;;;;;;;2.25;1.63;;;16.30;99.90;;;;;;5010002;28;20591;-65
2022/07/04 00:38:41;;;;;;;1.67;1.42;;;16.30;99.90;;;;;;5011367;28;20220;-65
2022/07/04 00:41:08;;;;;;;2.30;1.48;;;16.30;99.90;;;;;;5015972;28;20201;-65
2022/07/04 00:43:35;;;;;;;2.80;1.20;;;16.30;99.90;;;;;;5009725;28;20239;-65
2022/07/04 00:46:04;;;;;;;1.37;1.27;;;16.30;99.90;;;;;;5008403;28;20263;-65
2022/07/04 00:48:31;;;;;;;3.88;1.15;;;16.10;99.90;;;;;;5010181;28;20223;-65
2022/07/04 00:50:59;;;;;;;2.15;1.25;;;16.00;99.90;;;;;;5006138;28;20204;-65
2022/07/04 00:53:26;;;;;;;2.60;1.63;;;16.10;99.90;;;;;;5005929;28;20666;-65
2022/07/04 00:55:55;;;;;;;2.72;1.23;;;16.10;99.90;;;;;;5008900;28;20208;-65
2022/07/04 00:58:23;;;;;;;2.30;1.20;;;15.80;99.90;;;;;;5007048;28;20299;-65
2022/07/04 01:00:50;;;;;;;1.47;1.40;;;15.90;99.90;;;;;;5006281;28;20204;-65
2022/07/04 01:03:17;;;;;;;2.63;1.40;;;15.80;99.90;;;;;;5003319;28;20655;-65
2022/07/04 01:05:46;;;;;;;1.43;1.33;;;15.80;99.90;;;;;;5010108;28;20260;-66
2022/07/04 01:08:13;;;;;;;2.50;1.53;;;15.60;99.90;;;;;;5007556;28;20209;-65
2022/07/04 01:10:40;;;;;;;1.63;1.53;;;15.60;99.90;;;;;;5003607;28;21017;-65
2022/07/04 01:13:09;;;;;;;1.58;1.40;;;15.60;99.90;;;;;;5004748;28;20319;-65
2022/07/04 01:15:35;;;;;;;1.50;1.40;;;15.70;99.90;;;;;;5009134;28;20212;-63
2022/07/04 01:18:02;;;;;;;1.57;1.40;;;15.20;99.90;;;;;;5006422;28;20283;-63
2022/07/04 01:20:37;;;;;;;2.37;1.33;;;15.30;99.90;;;;;;5008448;28;20204;-63
2022/07/04 01:23:04;;;;;;;2.58;1.73;;;15.10;99.90;;;;;;5008734;28;20199;-63
2022/07/04 01:25:32;;;;;;;2.17;1.40;;;15.30;99.90;;;;;;5007352;28;20244;-63
2022/07/04 01:27:59;;;;;;;1.93;1.57;;;15.30;99.90;;;;;;5005369;28;20290;-63
2022/07/04 01:30:27;;;;;;;1.63;1.53;;;15.00;99.90;;;;;;5002851;28;20204;-63
2022/07/04 01:32:54;;;;;;;1.50;1.30;;;15.00;99.90;;;;;;5006124;28;20288;-63
2022/07/04 01:35:21;;;;;;;2.03;1.80;;;15.00;99.90;;;;;;5009141;28;20748;-63
2022/07/04 01:37:49;;;;;;;3.73;1.70;;;15.10;99.90;;;;;;5005981;28;20283;-63
2022/07/04 01:40:16;;;;;;;1.90;1.80;;;14.80;99.90;;;;;;5007863;28;20263;-63
2022/07/04 01:42:43;;;;;;;2.50;1.60;;;14.80;99.90;;;;;;5007152;28;20200;-63
2022/07/04 01:45:11;;;;;;;2.97;2.03;;;14.90;99.90;;;;;;5010316;28;20216;-63
2022/07/04 01:47:39;;;;;;;1.80;1.70;;;14.60;99.90;;;;;;5006830;28;20623;-63
2022/07/04 01:50:08;;;;;;;2.07;1.70;;;14.60;99.90;;;;;;4999780;28;20255;-63
2022/07/04 01:52:37;;;;;;;1.63;1.53;;;14.70;99.90;;;;;;5006180;28;20231;-63
2022/07/04 01:55:07;;;;;;;1.90;1.80;;;14.70;99.90;;;;;;5002759;28;20201;-63
2022/07/04 01:57:34;;;;;;;2.40;2.00;;;14.70;99.90;;;;;;5009832;28;20998;-63
2022/07/04 02:02:45;;;;;;;3.73;1.50;;;14.50;99.90;;;;;;5016818;28;20211;-63
2022/07/04 02:05:12;;;;;;;2.23;2.03;;;14.70;99.90;;;;;;5009711;28;20223;-63
2022/07/04 02:07:39;;;;;;;2.50;2.30;;;14.60;99.90;;;;;;5006321;28;20278;-63
2022/07/04 02:10:09;;;;;;;2.53;2.00;;;14.70;99.90;;;;;;5011766;28;20211;-63
2022/07/04 02:15:20;;;;;;;2.10;1.83;;;14.50;99.90;;;;;;5009922;28;20207;-63
2022/07/04 02:17:47;;;;;;;2.53;1.93;;;14.60;99.90;;;;;;5008227;28;20204;-63
2022/07/04 02:20:15;;;;;;;5.27;1.90;;;14.60;99.90;;;;;;5005147;28;20199;-63
2022/07/04 02:22:42;;;;;;;4.07;2.40;;;14.60;99.90;;;;;;5015843;28;20231;-63
2022/07/04 02:25:11;;;;;;;3.67;2.00;;;14.80;99.90;;;;;;5008246;28;20303;-63
2022/07/04 02:27:39;;;;;;;4.50;1.90;;;14.80;99.90;;;;;;5009299;28;20201;-63
2022/07/04 02:30:08;;;;;;;2.23;1.77;;;14.50;99.90;;;;;;4997153;28;20619;-63
2022/07/04 02:32:35;;;;;;;3.33;1.93;;;14.50;99.90;;;;;;5006829;28;20205;-63
2022/07/04 02:35:02;;;;;;;2.17;1.97;;;14.40;99.90;;;;;;5010385;28;20605;-63
2022/07/04 02:37:29;;;;;;;5.03;2.10;;;14.30;99.90;;;;;;5005428;28;20196;-63
2022/07/04 02:39:56;;;;;;;3.90;2.00;;;14.50;99.90;;;;;;5008890;28;20661;-63
2022/07/04 02:42:25;;;;;;;3.63;2.27;;;14.40;99.90;;;;;;5013514;28;20255;-63
2022/07/04 02:44:52;;;;;;;2.80;2.10;;;14.20;99.90;;;;;;5010173;28;20326;-63
2022/07/04 02:47:19;;;;;;;3.57;2.33;;;14.40;99.90;;;;;;5005465;28;20643;-63
2022/07/04 02:49:46;;;;;;;2.53;2.33;;;14.50;99.90;;;;;;5012466;28;20204;-63
2022/07/04 02:52:13;;;;;;;4.00;1.90;;;14.60;99.90;;;;;;5008038;28;20283;-63
2022/07/04 02:54:40;;;;;;;4.37;2.63;;;14.50;99.90;;;;;;5011363;28;20207;-63
2022/07/04 02:57:07;;;;;;;3.07;2.00;;;14.60;99.90;;;;;;5011387;28;20609;-64
2022/07/04 02:59:36;;;;;;;4.07;2.10;;;14.80;99.90;;;;;;5013551;28;20636;-63
2022/07/04 03:02:03;;;;;;;3.23;2.20;;;14.70;99.90;;;;;;5007140;28;20291;-63
2022/07/04 03:04:30;;;;;;;2.50;2.30;;;14.80;99.90;;;;;;5013258;28;20196;-70
2022/07/04 03:06:57;;;;;;;4.57;2.40;;;14.70;99.90;;;;;;5010147;28;20283;-63
2022/07/04 03:09:26;;;;;;;5.00;2.60;;;14.60;99.90;;;;;;5011068;28;20197;-63
2022/07/04 03:11:53;;;;;;;6.97;2.40;;;14.60;99.90;;;;;;5010629;28;20303;-63
2022/07/04 03:14:20;;;;;;;9.03;3.03;;;14.70;99.90;;;;;;5009058;28;20274;-63
2022/07/04 03:16:49;;;;;;;4.73;2.30;;;14.80;99.90;;;;;;5011812;28;20635;-63
2022/07/04 03:19:17;;;;;;;16.77;7.83;;;14.60;99.90;;;;;;5012008;28;20246;-63
2022/07/04 03:21:44;;;;;;;13.07;4.93;;;14.70;99.90;;;;;;5010838;28;20204;-63
2022/07/04 03:24:11;;;;;;;7.20;3.40;;;14.70;99.90;;;;;;5012871;28;20279;-63
2022/07/04 03:26:38;;;;;;;5.80;3.20;;;14.70;99.90;;;;;;5012011;28;20238;-63
2022/07/04 03:29:05;;;;;;;6.60;4.17;;;14.80;99.90;;;;;;5008712;28;20201;-63
2022/07/04 03:31:32;;;;;;;5.40;3.63;;;15.00;99.90;;;;;;5012627;28;20205;-64
2022/07/04 03:34:00;;;;;;;4.10;3.23;;;15.00;99.90;;;;;;5008100;28;20233;-63
2022/07/04 03:36:27;;;;;;;7.87;2.80;;;15.10;99.90;;;;;;5007868;28;20200;-63
2022/07/04 03:38:54;;;;;;;4.33;2.37;;;15.00;99.90;;;;;;5013288;28;20649;-63
2022/07/04 03:41:21;;;;;;;6.10;2.43;;;15.10;99.90;;;;;;5010731;28;20255;-63
2022/07/04 03:43:48;;;;;;;4.93;2.37;;;15.20;99.90;;;;;;5009536;28;20290;-63
2022/07/04 03:46:15;;;;;;;7.30;2.60;;;15.30;99.90;;;;;;5007615;28;20259;-63
2022/07/04 03:48:43;;;;;;;4.10;2.50;;;15.30;99.90;;;;;;5011267;28;20275;-63
2022/07/04 03:51:11;;;;;;;7.03;2.40;;;15.30;99.90;;;;;;5016951;28;20201;-63
2022/07/04 03:53:39;;;;;;;6.60;2.77;;;15.10;99.90;;;;;;5006756;28;20632;-63
2022/07/04 03:56:06;;;;;;;8.10;2.60;;;15.10;99.90;;;;;;5008853;28;20207;-63
2022/07/04 03:58:33;;;;;;;6.35;2.60;;;15.20;99.90;;;;;;5011413;28;20232;-63
2022/07/04 04:01:00;;;;;;;2.95;2.10;;;15.20;99.90;;;;;;5005505;28;20235;-63
2022/07/04 04:06:13;;;;;;;4.73;2.50;;;15.40;99.90;;;;;;5004304;28;20231;-63
2022/07/04 04:08:40;;;;;;;7.67;2.43;;;15.30;99.90;;;;;;5010769;28;20208;-64
2022/07/04 04:11:07;;;;;;;9.00;2.70;;;15.30;99.90;;;;;;5008832;28;20270;-64
2022/07/04 04:13:34;;;;;;;5.00;2.60;;;16.00;99.90;;;;;;5010366;28;20236;-64
2022/07/04 04:16:01;;;;;;;6.63;2.57;;;17.10;99.90;;;;;;5010389;28;20591;-64
2022/07/04 04:18:28;;;;;;;4.83;2.80;;;17.10;99.90;;;;;;5011262;28;20523;-64
2022/07/04 04:20:55;;;;;;;8.23;2.80;;;17.80;99.90;;;;;;5007798;28;20200;-64
2022/07/04 04:23:23;;;;;;;8.60;2.30;;;18.50;99.90;;;;;;5010764;28;20224;-64
2022/07/04 04:25:50;;;;;;;8.65;2.13;;;19.00;99.90;;;;;;5008739;28;20233;-65
2022/07/04 04:28:17;;;;;;;7.50;2.15;;;19.40;99.90;;;;;;5007055;28;20197;-68
2022/07/04 04:30:44;;;;;;;7.40;4.60;;;19.20;99.90;;;;;;5007795;28;20204;-64
2022/07/04 04:33:11;;;;;;;11.45;3.97;;;18.90;99.90;;;;;;5007677;28;20347;-64
2022/07/04 04:35:38;;;;;;;6.93;2.50;;;17.40;99.90;;;;;;5016380;28;20203;-64
2022/07/04 04:38:05;;;;;;;5.40;1.83;;;16.60;99.90;;;;;;5006793;28;20284;-64
2022/07/04 04:40:33;;;;;;;5.65;2.58;;;16.10;99.90;;;;;;5009899;28;20275;-64
2022/07/04 04:43:00;;;;;;;4.82;2.13;;;16.10;99.90;;;;;;5008452;28;20315;-64
2022/07/04 04:45:27;;;;;;;6.10;3.03;;;16.00;99.90;;;;;;5011147;28;20608;-64
2022/07/04 04:47:54;;;;;;;4.43;2.47;;;16.30;99.90;;;;;;5008978;28;20733;-64
2022/07/04 04:50:21;;;;;;;6.03;2.33;;;16.00;99.90;;;;;;5008459;28;20284;-64
2022/07/04 04:52:48;;;;;;;9.68;3.20;;;16.20;99.90;;;;;;5008449;28;20239;-64
2022/07/04 04:55:15;;;;;;;7.15;3.00;;;16.10;99.90;;;;;;5007744;28;20433;-64
2022/07/04 04:57:44;;;;;;;7.90;3.28;;;16.30;99.90;;;;;;5007521;28;20300;-64
2022/07/04 05:00:12;;;;;;;3.90;2.58;;;16.30;99.90;;;;;;5008024;28;20542;-64
2022/07/04 05:02:39;;;;;;;12.18;3.15;;;16.40;99.90;;;;;;5006799;28;20201;-64
2022/07/04 05:05:06;;;;;;;8.52;3.05;;;16.30;99.90;;;;;;5005846;28;20203;-64
2022/07/04 05:07:34;;;;;;;10.40;4.18;;;16.40;99.90;;;;;;5006174;28;20228;-64
2022/07/04 05:10:01;;;;;;;5.07;3.10;;;16.50;99.90;;;;;;5009864;28;20200;-64
2022/07/04 05:12:28;;;;;;;7.45;3.10;;;16.70;99.90;;;;;;5004176;28;20254;-64
2022/07/04 05:14:56;;;;;;;4.38;3.22;;;17.50;99.90;;;;;;5008863;28;20270;-64
2022/07/04 05:17:24;;;;;;;10.27;3.47;;;17.60;99.90;;;;;;5009195;28;20209;-64
2022/07/04 05:19:51;;;;;;;3.97;3.30;;;18.00;99.90;;;;;;5007684;28;20262;-64
2022/07/04 05:22:18;;;;;;;5.20;3.40;;;17.20;99.90;;;;;;5005629;28;20228;-64
2022/07/04 05:24:45;;;;;;;4.55;3.70;;;17.10;99.90;;;;;;5010356;28;20212;-64
2022/07/04 05:27:12;;;;;;;5.65;3.35;;;17.10;99.90;;;;;;5007985;28;20749;-64
2022/07/04 05:29:39;;;;;;;5.28;3.70;;;17.20;99.90;;;;;;5009828;28;20279;-64
2022/07/04 05:32:08;;;;;;;6.07;3.50;;;17.20;99.90;;;;;;5007569;28;20565;-64
2022/07/04 05:34:35;;;;;;;6.35;4.13;;;17.40;99.90;;;;;;4998561;28;20267;-64
2022/07/04 05:37:02;;;;;;;6.93;3.95;;;18.10;99.90;;;;;;5009429;28;20212;-64
2022/07/04 05:39:29;;;;;;;5.35;3.65;;;18.60;99.90;;;;;;5002869;28;20204;-64
2022/07/04 05:41:57;;;;;;;6.10;3.42;;;18.10;99.90;;;;;;5004044;28;20310;-64
2022/07/04 05:44:24;;;;;;;6.32;4.20;;;18.20;99.90;;;;;;5004020;28;20575;-64
2022/07/04 05:46:50;;;;;;;4.95;4.38;;;17.90;99.90;;;;;;5007363;28;20232;-64
2022/07/04 05:49:19;;;;;;;6.30;4.68;;;18.20;99.90;;;;;;5016579;28;20211;-64
2022/07/04 05:51:46;;;;;;;9.63;4.47;;;19.20;99.90;;;;;;5010661;28;20204;-64
2022/07/04 05:54:13;;;;;;;6.53;4.57;;;18.80;99.90;;;;;;5013451;28;20287;-64
2022/07/04 05:56:41;;;;;;;5.50;4.25;;;18.80;99.90;;;;;;5006957;28;20208;-64
2022/07/04 05:59:09;;;;;;;7.47;4.43;;;18.80;99.90;;;;;;5017725;28;20208;-64
2022/07/04 06:01:36;;;;;;;7.60;4.85;;;18.70;99.90;;;;;;5010178;28;20240;-64
2022/07/04 06:04:03;;;;;;;6.30;5.07;;;18.80;99.90;;;;;;5009928;28;20291;-65
2022/07/04 06:06:31;;;;;;;6.82;6.05;;;18.10;99.90;;;;;;5012505;28;20256;-64
2022/07/04 06:08:58;;;;;;;7.22;5.57;;;18.00;99.90;;;;;;5010254;28;20294;-64
2022/07/04 06:11:25;;;;;;;6.55;5.47;;;17.90;99.90;;;;;;5016429;28;20228;-64
2022/07/04 06:13:52;;;;;;;9.82;5.70;;;17.90;99.90;;;;;;5009085;28;20243;-63
2022/07/04 06:16:19;;;;;;;6.30;5.70;;;18.10;99.90;;;;;;5013416;28;20265;-64
2022/07/04 06:18:46;;;;;;;6.22;5.60;;;18.10;99.90;;;;;;5022842;28;20207;-64
2022/07/04 06:21:13;;;;;;;8.63;6.35;;;18.10;99.90;;;;;;5010336;28;20271;-64
2022/07/04 06:23:42;;;;;;;7.43;6.10;;;18.20;99.90;;;;;;5009279;28;20235;-64
2022/07/04 06:26:09;;;;;;;6.65;5.65;;;18.20;99.90;;;;;;5008838;28;20282;-64
2022/07/04 06:28:36;;;;;;;7.32;5.55;;;18.50;99.90;;;;;;5015208;28;20202;-63
2022/07/04 06:31:03;;;;;;;8.88;5.80;;;18.70;99.90;;;;;;5009993;28;20204;-64
2022/07/04 06:33:30;;;;;;;6.72;5.50;;;18.50;99.90;;;;;;5016822;28;20270;-64
2022/07/04 06:35:56;;;;;;;6.43;4.60;;;18.70;99.90;;;;;;5011758;28;20232;-64
2022/07/04 06:38:25;;;;;;;6.47;4.30;;;18.50;99.90;;;;;;5007547;28;20220;-64
2022/07/04 06:40:55;;;;;;;6.65;3.53;;;18.30;99.90;;;;;;5008346;28;20216;-63
2022/07/04 06:43:23;;;;;;;4.30;3.30;;;18.20;99.90;;;;;;5011625;28;20205;-64
2022/07/04 06:45:50;;;;;;;4.68;3.40;;;18.10;99.90;;;;;;5012591;28;20216;-64
2022/07/04 06:48:18;;;;;;;4.30;3.10;;;18.30;99.90;;;;;;5009754;28;20701;-64
2022/07/04 06:50:46;;;;;;;6.40;2.65;;;18.40;99.90;;;;;;5018443;28;20203;-64
2022/07/04 06:53:13;;;;;;;3.10;2.80;;;18.50;99.90;;;;;;5015315;28;20278;-64
2022/07/04 06:55:42;;;;;;;2.85;2.47;;;18.60;99.90;;;;;;5018540;28;20667;-64
2022/07/04 06:58:10;;;;;;;5.53;3.17;;;18.30;99.90;;;;;;5017543;28;20258;-63
2022/07/04 07:00:38;;;;;;;3.83;2.90;;;18.40;99.90;;;;;;5006703;28;20207;-63
2022/07/04 07:03:05;;;;;;;3.53;2.90;;;18.50;99.90;;;;;;5008567;28;20739;-64
2022/07/04 07:05:32;;;;;;;3.20;2.90;;;18.60;99.90;;;;;;5000545;28;20271;-64
2022/07/04 07:07:59;;;;;;;5.90;2.92;;;18.80;99.90;;;;;;5008134;28;20236;-64
2022/07/04 07:10:26;;;;;;;5.65;2.92;;;18.70;99.90;;;;;;5016735;28;20287;-64
2022/07/04 07:12:53;;;;;;;5.50;2.88;;;18.80;99.90;;;;;;5007637;28;20292;-64
2022/07/04 07:15:22;;;;;;;3.55;2.63;;;18.70;99.90;;;;;;5016070;28;20287;-64
2022/07/04 07:17:48;;;;;;;10.10;2.90;;;18.70;99.90;;;;;;5011544;28;20204;-64
2022/07/04 07:20:15;;;;;;;4.38;2.83;;;18.90;99.90;;;;;;5014237;28;20258;-64
2022/07/04 07:22:43;;;;;;;2.50;2.30;;;19.00;99.90;;;;;;5012747;28;20637;-63
2022/07/04 07:25:11;;;;;;;3.10;2.60;;;19.20;99.90;;;;;;5012900;28;20253;-64
2022/07/04 07:27:38;;;;;;;3.05;2.70;;;19.20;99.90;;;;;;5007187;28;20228;-63
2022/07/04 07:30:06;;;;;;;5.45;2.70;;;19.30;99.90;;;;;;5003544;28;20263;-64
2022/07/04 07:32:35;;;;;;;2.95;2.50;;;19.10;99.90;;;;;;5004549;28;20201;-64
2022/07/04 07:35:02;;;;;;;5.05;2.38;;;19.10;99.90;;;;;;5011118;28;20208;-64
2022/07/04 07:37:29;;;;;;;6.20;2.67;;;19.00;99.90;;;;;;5004762;28;20343;-64
2022/07/04 07:39:56;;;;;;;3.58;2.67;;;18.90;99.90;;;;;;5009287;28;20204;-64
2022/07/04 07:42:25;;;;;;;6.00;2.90;;;19.00;99.90;;;;;;5008343;28;20686;-66
2022/07/04 07:44:52;;;;;;;2.67;2.33;;;19.10;99.90;;;;;;5013416;28;20218;-66
2022/07/04 07:47:19;;;;;;;3.28;2.33;;;19.00;99.90;;;;;;5017777;28;20282;-66
2022/07/04 07:49:48;;;;;;;2.58;2.38;;;19.20;99.90;;;;;;5010831;28;20288;-66
2022/07/04 07:52:15;;;;;;;4.30;2.80;;;19.30;99.90;;;;;;4999959;28;20209;-66
2022/07/04 07:54:42;;;;;;;3.50;2.55;;;19.30;99.90;;;;;;5008204;28;20473;-66
2022/07/04 07:57:09;;;;;;;3.83;2.28;;;19.20;99.90;;;;;;5013473;28;20630;-66
2022/07/04 07:59:36;;;;;;;2.28;2.08;;;19.30;99.90;;;;;;5004320;28;20280;-66
2022/07/04 08:02:03;;;;;;;5.03;2.05;;;19.50;99.90;;;;;;5014466;28;20213;-66
2022/07/04 08:04:35;;;;;;;2.28;2.10;;;19.30;99.90;;;;;;5009605;28;20202;-66
2022/07/04 08:07:06;;;;;;;4.93;2.15;;;19.50;99.90;;;;;;5008011;28;20364;-66
2022/07/04 08:09:33;;;;;;;4.90;2.20;;;19.40;99.90;;;;;;5006739;28;20235;-66
2022/07/04 08:12:01;;;;;;;4.22;2.00;;;19.60;98.90;;;;;;5010232;28;20628;-66
2022/07/04 08:14:28;;;;;;;2.35;2.15;;;19.90;95.20;;;;;;5004216;28;20196;-66
2022/07/04 08:16:55;;;;;;;2.35;2.05;;;19.80;90.80;;;;;;5018006;28;20208;-66
2022/07/04 08:19:24;;;;;;;2.03;1.83;;;19.80;89.90;;;;;;5003751;28;20208;-66
2022/07/04 08:21:51;;;;;;;4.47;2.13;;;19.80;84.40;;;;;;5011421;28;20295;-66
2022/07/04 08:24:20;;;;;;;3.30;2.03;;;20.00;91.20;;;;;;5016648;28;20196;-66
2022/07/04 08:26:47;;;;;;;3.35;2.17;;;20.10;90.20;;;;;;5000135;28;20366;-66
2022/07/04 08:29:14;;;;;;;4.57;2.10;;;20.00;89.70;;;;;;4997397;28;20213;-66
2022/07/04 08:31:41;;;;;;;2.58;1.90;;;20.00;91.00;;;;;;5003944;28;20204;-66
2022/07/04 08:34:08;;;;;;;2.72;2.20;;;20.00;92.50;;;;;;5013474;28;20283;-66
2022/07/04 08:36:35;;;;;;;2.72;1.90;;;20.10;94.40;;;;;;5007217;28;20243;-66
2022/07/04 08:39:02;;;;;;;2.10;1.77;;;20.00;95.10;;;;;;5006396;28;20367;-67
2022/07/04 08:41:37;;;;;;;2.42;1.60;;;20.20;92.40;;;;;;5001093;28;20290;-66
2022/07/04 08:44:07;;;;;;;4.60;1.70;;;20.20;94.40;;;;;;5002078;28;20214;-66
2022/07/04 08:46:36;;;;;;;3.63;1.90;;;20.40;91.00;;;;;;5008007;28;20231;-66
2022/07/04 08:49:06;;;;;;;5.28;1.92;;;20.40;82.40;;;;;;5011550;28;20799;-66
2022/07/04 08:51:44;;;;;;;2.45;1.88;;;21.00;84.80;;;;;;4998986;28;20232;-66
2022/07/04 08:59:45;;;;;;;2.58;1.50;;;20.80;76.10;;;;;;5008171;28;20222;-66
2022/07/04 09:02:14;;;;;;;3.80;1.88;;;20.70;74.90;;;;;;5006192;28;20263;-66
2022/07/04 09:04:44;;;;;;;7.40;2.30;;;20.30;81.70;;;;;;5013413;28;20239;-66
2022/07/04 09:07:12;;;;;;;4.60;1.55;;;20.10;82.00;;;;;;5007708;28;20282;-66
2022/07/04 09:09:41;;;;;;;3.90;1.80;;;20.10;82.50;;;;;;5008929;28;20232;-66
2022/07/04 09:12:10;;;;;;;1.80;1.30;;;20.70;79.70;;;;;;4998031;28;20206;-66
2022/07/04 09:14:37;;;;;;;2.97;1.08;;;21.30;66.50;;;;;;5004873;28;20200;-66
2022/07/04 09:17:05;;;;;;;1.88;1.17;;;21.90;52.80;;;;;;5009868;28;20259;-66
2022/07/04 09:19:32;;;;;;;3.67;1.20;;;22.40;47.80;;;;;;5004497;28;20254;-66
2022/07/04 09:22:04;;;;;;;2.22;1.20;;;22.80;45.30;;;;;;5010484;28;20251;-66
2022/07/04 09:24:48;;;;;;;1.65;1.35;;;23.10;39.70;;;;;;5009989;28;20196;-66
2022/07/04 09:27:32;;;;;;;3.20;1.52;;;23.30;37.00;;;;;;5012323;28;20301;-66
2022/07/04 09:30:00;;;;;;;3.10;1.30;;;23.50;39.80;;;;;;5007578;28;20203;-66
2022/07/04 09:32:38;;;;;;;2.05;1.20;;;23.40;40.80;;;;;;5009477;28;20232;-66
2022/07/04 09:35:07;;;;;;;1.48;0.98;;;23.50;34.10;;;;;;5011576;28;20200;-66
2022/07/04 09:37:38;;;;;;;1.85;1.02;;;23.30;32.90;;;;;;5018174;28;20203;-68
2022/07/04 09:40:08;;;;;;;1.95;0.95;;;23.20;33.30;;;;;;5002026;28;20200;-66
2022/07/04 09:42:38;;;;;;;1.98;0.90;;;23.60;31.90;;;;;;5005664;28;20196;-66
2022/07/04 09:45:07;;;;;;;2.75;1.15;;;24.20;23.80;;;;;;5006363;28;20204;-66
2022/07/04 09:47:34;;;;;;;3.65;1.00;;;24.00;23.00;;;;;;5006393;28;20239;-66
2022/07/04 09:50:02;;;;;;;1.33;1.02;;;24.20;23.50;;;;;;5005353;28;20652;-66
2022/07/04 09:52:29;;;;;;;1.38;0.70;;;24.70;22.20;;;;;;5018803;28;20203;-66
2022/07/04 09:54:59;;;;;;;2.55;1.00;;;24.70;22.50;;;;;;5007130;28;20301;-66
2022/07/04 09:57:26;;;;;;;1.02;0.93;;;25.40;21.80;;;;;;5009356;28;20208;-66
2022/07/04 09:59:55;;;;;;;1.58;0.70;;;25.20;16.10;;;;;;5002842;28;20204;-66
2022/07/04 10:02:22;;;;;;;1.45;1.00;;;24.60;14.60;;;;;;4995339;28;20258;-66
2022/07/04 10:04:51;;;;;;;1.58;0.90;;;25.00;16.20;;;;;;4994685;28;20224;-67
2022/07/04 10:07:33;;;;;;;1.33;1.13;;;25.00;16.90;;;;;;4994583;28;20779;-66
2022/07/04 10:10:00;;;;;;;1.70;0.90;;;24.40;16.10;;;;;;4997380;28;20297;-66
2022/07/04 10:12:28;;;;;;;0.77;0.70;;;25.10;17.60;;;;;;4999609;28;20266;-67
2022/07/04 10:14:57;;;;;;;2.47;0.73;;;25.30;12.40;;;;;;4995515;28;20216;-67
2022/07/04 10:17:24;;;;;;;3.22;1.10;;;25.70;12.70;;;;;;5011957;28;20281;-66
2022/07/04 10:19:52;;;;;;;2.22;0.80;;;25.50;8.30;;;;;;5008928;28;20258;-66
2022/07/04 10:22:21;;;;;;;0.98;0.90;;;25.10;12.10;;;;;;4998886;28;20573;-67
2022/07/04 10:24:48;;;;;;;1.60;1.05;;;24.50;13.60;;;;;;4994700;28;20837;-66
2022/07/04 10:27:16;;;;;;;1.08;0.50;;;24.50;12.40;;;;;;4997018;28;20758;-67
2022/07/04 10:29:43;;;;;;;0.85;0.77;;;24.80;8.40;;;;;;4998663;28;20690;-66
2022/07/04 10:32:13;;;;;;;1.75;0.90;;;24.70;9.80;;;;;;4995891;28;20200;-66
2022/07/04 10:34:41;;;;;;;2.38;0.80;;;25.30;8.00;;;;;;4996841;28;20340;-66
2022/07/04 10:37:08;;;;;;;1.70;0.73;;;25.70;7.90;;;;;;5000233;28;20212;-67
2022/07/04 10:39:35;;;;;;;0.93;0.60;;;25.80;6.10;;;;;;5003224;28;20225;-67
2022/07/04 10:42:03;;;;;;;3.30;0.90;;;26.10;7.70;;;;;;4994545;28;20636;-67
2022/07/04 10:44:37;;;;;;;1.20;1.00;;;25.80;7.10;;;;;;4993756;28;20193;-67
2022/07/04 10:47:04;;;;;;;0.95;0.70;;;26.60;7.20;;;;;;4999270;28;20243;-66
2022/07/04 10:49:35;;;;;;;0.85;0.77;;;26.30;4.00;;;;;;4997718;28;20204;-71
2022/07/04 10:52:13;;;;;;;2.15;0.70;;;25.80;4.40;;;;;;4998451;28;20204;-67
2022/07/04 10:54:41;;;;;;;0.77;0.70;;;25.90;3.00;;;;;;4994025;28;20204;-68
2022/07/04 10:57:14;;;;;;;2.03;0.75;;;26.70;4.00;;;;;;4992052;28;20302;-68
2022/07/04 10:59:43;;;;;;;3.30;0.68;;;26.50;1.40;;;;;;4998221;28;20247;-68
2022/07/04 11:02:26;;;;;;;1.23;0.80;;;26.40;3.00;;;;;;5018378;28;20247;-68
2022/07/04 11:04:57;;;;;;;0.90;0.77;;;26.80;3.00;;;;;;5003826;28;20239;-68
2022/07/04 11:08:06;;;;;;;0.70;0.60;;;25.90;6.90;;;;;;5007845;28;20274;-68
2022/07/04 11:10:38;;;;;;;2.00;0.98;;;25.50;4.00;;;;;;5001227;28;20308;-68
2022/07/04 11:13:18;;;;;;;0.82;0.80;;;25.20;4.10;;;;;;5001210;28;20608;-68
2022/07/04 11:16:05;;;;;;;3.03;0.90;;;25.20;3.80;;;;;;5004576;28;20235;-68
2022/07/04 11:18:40;;;;;;;1.95;0.93;;;25.40;4.30;;;;;;5012038;28;20631;-68
2022/07/04 11:21:18;;;;;;;1.80;0.90;;;25.80;3.70;;;;;;5008504;28;20203;-68
2022/07/04 11:23:51;;;;;;;1.02;0.80;;;26.20;3.00;;;;;;5010689;28;20709;-68
2022/07/04 11:26:19;;;;;;;0.60;0.60;;;26.10;1.90;;;;;;4994841;28;20516;-68
2022/07/04 11:28:47;;;;;;;0.80;0.73;;;26.90;4.40;;;;;;4997565;28;20313;-68
2022/07/04 11:31:15;;;;;;;1.55;0.70;;;27.00;2.10;;;;;;5000478;28;20235;-68
2022/07/04 11:33:43;;;;;;;1.83;0.80;;;26.10;1.00;;;;;;5000670;28;20204;-68
2022/07/04 11:36:11;;;;;;;4.47;1.00;;;26.10;1.00;;;;;;5004382;28;20208;-68
2022/07/04 11:38:53;;;;;;;1.75;0.68;;;26.40;1.00;;;;;;4997051;28;20549;-68
2022/07/04 11:46:52;;;;;;;0.68;0.60;;;26.90;2.20;;;;;;4997178;28;20219;-68
2022/07/04 11:49:20;;;;;;;0.75;0.65;;;26.60;1.00;;;;;;5008891;28;20290;-68
2022/07/04 11:51:49;;;;;;;1.75;0.82;;;27.20;3.70;;;;;;5006974;28;20204;-68
2022/07/04 11:54:18;;;;;;;1.73;0.90;;;27.00;1.00;;;;;;5011801;28;20614;-68
2022/07/04 11:56:46;;;;;;;0.70;0.70;;;26.90;1.50;;;;;;5009943;28;20211;-67
2022/07/04 11:59:14;;;;;;;1.88;0.80;;;26.90;1.00;;;;;;5010957;28;20209;-68
2022/07/04 12:01:42;;;;;;;0.80;0.80;;;26.70;1.00;;;;;;5010210;28;20316;-68
2022/07/04 12:04:17;;;;;;;1.85;0.85;;;27.80;1.00;;;;;;5011355;28;20235;-68
2022/07/04 12:06:45;;;;;;;1.08;0.63;;;27.00;1.00;;;;;;5008645;28;20370;-68
2022/07/04 12:09:12;;;;;;;3.42;0.75;;;27.20;1.00;;;;;;5004324;28;20274;-68
2022/07/04 12:11:55;;;;;;;1.50;0.50;;;26.90;1.00;;;;;;5008523;28;20200;-68
2022/07/04 12:14:22;;;;;;;2.08;1.13;;;26.00;1.00;;;;;;5006697;28;20713;-68
2022/07/04 12:16:49;;;;;;;1.75;0.95;;;26.60;1.00;;;;;;5003065;28;20295;-68
2022/07/04 12:19:16;;;;;;;0.57;0.57;;;26.50;1.00;;;;;;5002682;28;20266;-67
2022/07/04 12:21:44;;;;;;;2.05;0.65;;;26.70;1.00;;;;;;5001176;28;20267;-67
2022/07/04 12:24:11;;;;;;;1.77;0.95;;;26.70;1.00;;;;;;5004607;28;20204;-68
2022/07/04 12:26:48;;;;;;;2.92;0.98;;;25.70;1.00;;;;;;4995519;28;20266;-68
2022/07/04 12:29:24;;;;;;;1.30;0.77;;;25.80;1.00;;;;;;4993895;28;20289;-68
2022/07/04 12:31:54;;;;;;;1.45;0.80;;;25.40;1.00;;;;;;4996382;28;20283;-68
2022/07/04 12:34:21;;;;;;;0.68;0.60;;;25.20;1.20;;;;;;4994397;28;20576;-67
2022/07/04 12:36:53;;;;;;;1.00;0.80;;;25.30;2.10;;;;;;4997163;28;20828;-68
2022/07/04 12:39:31;;;;;;;1.58;0.90;;;25.20;1.50;;;;;;5007990;28;20212;-68
2022/07/04 12:42:09;;;;;;;1.80;1.23;;;25.10;1.00;;;;;;5008558;28;20286;-68
2022/07/04 12:44:38;;;;;;;2.42;1.13;;;24.70;2.10;;;;;;5002842;28;20270;-68
2022/07/04 12:47:06;;;;;;;1.33;0.95;;;24.80;3.30;;;;;;5001442;28;20274;-68
2022/07/04 12:49:34;;;;;;;2.22;0.70;;;25.30;1.60;;;;;;5000125;28;20277;-68
2022/07/04 12:52:12;;;;;;;0.75;0.70;;;25.60;1.00;;;;;;5006634;28;20617;-68
2022/07/04 12:54:40;;;;;;;1.45;0.85;;;25.10;1.00;;;;;;5008156;28;20730;-68
2022/07/04 12:57:10;;;;;;;0.70;0.70;;;25.30;1.90;;;;;;5011084;28;20227;-68
2022/07/04 12:59:39;;;;;;;1.20;0.57;;;25.00;2.20;;;;;;5003623;28;20266;-67
2022/07/04 13:02:07;;;;;;;0.80;0.70;;;25.00;3.20;;;;;;5005395;28;20207;-68
2022/07/04 13:04:34;;;;;;;1.63;0.60;;;24.80;1.40;;;;;;4995811;28;20314;-68
2022/07/04 13:07:13;;;;;;;1.50;0.55;;;25.60;2.30;;;;;;5004383;28;20208;-68
2022/07/04 13:09:40;;;;;;;1.42;0.85;;;25.50;2.20;;;;;;5001935;28;20234;-68
2022/07/04 13:12:26;;;;;;;0.60;0.60;;;24.70;1.20;;;;;;5004006;28;20256;-68
2022/07/04 13:14:55;;;;;;;1.25;1.15;;;24.70;1.30;;;;;;5004967;28;20217;-68